createdAt,value
2018-07-17T00:00:51.902Z,20.30
2018-07-17T00:03:20.513Z,12.60
2018-07-17T00:05:49.005Z,20.40
2018-07-17T00:08:17.459Z,24.90
2018-07-17T00:10:45.952Z,23.50
2018-07-17T00:13:14.498Z,28.60
2018-07-17T00:15:43.000Z,25.90
2018-07-17T00:18:11.489Z,30.00
2018-07-17T00:20:39.958Z,42.10
2018-07-17T00:23:08.553Z,39.30
2018-07-17T00:25:37.058Z,40.40
2018-07-17T00:28:05.745Z,41.90
2018-07-17T00:30:34.338Z,39.70
2018-07-17T00:33:02.795Z,48.10
2018-07-17T00:35:31.263Z,55.00
2018-07-17T00:37:59.765Z,47.30
2018-07-17T00:40:28.218Z,46.70
2018-07-17T00:42:56.680Z,48.20
2018-07-17T00:45:25.158Z,66.20
2018-07-17T00:47:53.915Z,68.30
2018-07-17T00:50:22.412Z,60.90
2018-07-17T00:52:50.900Z,59.00
2018-07-17T00:55:19.366Z,57.00
2018-07-17T00:57:47.848Z,62.20
2018-07-17T01:00:16.440Z,63.40
2018-07-17T01:02:50.270Z,62.50
2018-07-17T01:05:24.034Z,65.50
2018-07-17T01:07:57.871Z,74.10
2018-07-17T01:10:31.636Z,65.00
2018-07-17T01:12:59.308Z,71.20
2018-07-17T01:15:32.040Z,67.80
2018-07-17T01:18:00.540Z,83.50
2018-07-17T01:20:29.125Z,82.70
2018-07-17T01:22:57.808Z,79.90
2018-07-17T01:25:26.316Z,74.40
2018-07-17T01:27:55.103Z,85.10
2018-07-17T01:30:23.590Z,92.90
2018-07-17T01:32:52.061Z,94.20
2018-07-17T01:35:20.538Z,93.60
2018-07-17T01:37:49.091Z,84.70
2018-07-17T01:40:17.597Z,91.60
2018-07-17T01:42:46.068Z,81.60
2018-07-17T01:45:14.555Z,94.40
2018-07-17T01:47:43.023Z,94.10
2018-07-17T01:50:11.615Z,93.60
2018-07-17T01:52:40.099Z,94.90
2018-07-17T01:55:08.575Z,97.30
2018-07-17T01:57:37.071Z,94.90
2018-07-17T02:00:05.803Z,96.60
2018-07-17T02:02:34.248Z,95.60
2018-07-17T02:05:02.755Z,97.00
2018-07-17T02:07:31.260Z,96.40
2018-07-17T02:09:59.777Z,99.70
2018-07-17T02:12:28.278Z,99.90
2018-07-17T02:14:56.774Z,99.90
2018-07-17T02:17:25.247Z,98.70
2018-07-17T02:19:53.742Z,98.30
2018-07-17T02:22:22.325Z,99.90
2018-07-17T02:24:50.801Z,99.90
2018-07-17T02:27:19.289Z,99.90
2018-07-17T02:29:47.757Z,99.90
2018-07-17T02:32:16.302Z,99.90
2018-07-17T02:34:44.775Z,99.90
2018-07-17T02:37:13.283Z,99.90
2018-07-17T02:39:41.782Z,99.90
2018-07-17T02:42:10.292Z,99.90
2018-07-17T02:44:38.729Z,99.90
2018-07-17T02:47:07.212Z,99.90
2018-07-17T02:49:35.701Z,99.90
2018-07-17T02:52:04.197Z,99.90
2018-07-17T02:54:32.800Z,99.90
2018-07-17T02:57:01.268Z,99.90
2018-07-17T02:59:29.730Z,99.90
2018-07-17T03:01:58.178Z,99.90
2018-07-17T03:04:26.710Z,99.90
2018-07-17T03:06:55.400Z,99.90
2018-07-17T03:09:23.832Z,99.90
2018-07-17T03:11:52.271Z,99.90
2018-07-17T03:14:20.966Z,99.90
2018-07-17T03:16:49.457Z,99.90
2018-07-17T03:19:17.942Z,99.90
2018-07-17T03:21:46.400Z,99.90
2018-07-17T03:24:14.900Z,99.90
2018-07-17T03:26:43.380Z,99.90
2018-07-17T03:29:11.853Z,99.90
2018-07-17T03:31:40.446Z,99.90
2018-07-17T03:34:08.917Z,99.90
2018-07-17T03:36:37.436Z,99.90
2018-07-17T03:39:07.252Z,99.90
2018-07-17T03:41:35.844Z,99.90
2018-07-17T03:44:04.530Z,99.90
2018-07-17T03:46:33.091Z,99.90
2018-07-17T03:49:01.678Z,99.90
2018-07-17T03:51:30.183Z,99.90
2018-07-17T03:53:58.626Z,99.90
2018-07-17T03:56:27.096Z,99.90
2018-07-17T03:58:55.553Z,99.90
2018-07-17T04:01:24.108Z,99.90
2018-07-17T04:03:52.875Z,99.90
2018-07-17T04:06:21.378Z,99.90
2018-07-17T04:08:49.875Z,99.90
2018-07-17T04:13:46.486Z,99.90
2018-07-17T04:16:14.983Z,99.90
2018-07-17T04:18:43.443Z,99.90
2018-07-17T04:21:11.987Z,99.90
2018-07-17T04:23:40.673Z,98.70
2018-07-17T04:26:09.147Z,98.80
2018-07-17T04:28:37.829Z,99.90
2018-07-17T04:31:06.812Z,99.90
2018-07-17T04:33:35.314Z,98.30
2018-07-17T04:36:03.827Z,99.90
2018-07-17T04:38:32.339Z,99.90
2018-07-17T04:41:00.791Z,99.20
2018-07-17T04:43:29.258Z,93.70
2018-07-17T04:45:57.725Z,90.40
2018-07-17T04:48:26.203Z,94.10
2018-07-17T04:50:54.758Z,92.10
2018-07-17T04:53:23.264Z,93.70
2018-07-17T04:55:51.754Z,82.10
2018-07-17T05:00:48.550Z,84.20
2018-07-17T05:03:17.010Z,71.30
2018-07-17T05:05:45.456Z,67.00
2018-07-17T05:08:13.942Z,53.10
2018-07-17T05:10:42.423Z,28.20
2018-07-17T05:13:10.979Z,19.90
2018-07-17T05:15:39.439Z,4.30
2018-07-17T05:18:07.893Z,1.00
2018-07-17T05:20:36.397Z,1.00
2018-07-17T05:23:05.033Z,1.00
2018-07-17T05:25:33.527Z,1.00
2018-07-17T05:28:02.017Z,1.00
2018-07-17T05:30:30.506Z,1.00
2018-07-17T05:32:58.986Z,1.00
2018-07-17T05:35:27.625Z,1.00
2018-07-17T05:37:56.089Z,1.00
2018-07-17T05:40:24.629Z,1.00
2018-07-17T05:42:53.124Z,1.00
2018-07-17T05:45:21.643Z,1.00
2018-07-17T05:47:50.160Z,1.00
2018-07-17T05:50:18.673Z,1.00
2018-07-17T05:55:15.330Z,99.90
2018-07-17T05:57:43.791Z,99.90
2018-07-17T06:00:12.350Z,99.90
2018-07-17T06:02:40.810Z,99.90
2018-07-17T06:05:09.452Z,99.90
2018-07-17T06:07:38.234Z,99.90
2018-07-17T06:10:06.706Z,99.90
2018-07-17T06:12:35.182Z,1.00
2018-07-17T06:15:03.700Z,1.00
2018-07-17T06:17:32.177Z,1.00
2018-07-17T06:20:00.677Z,99.90
2018-07-17T06:22:29.216Z,99.90
2018-07-17T06:24:57.843Z,99.90
2018-07-17T06:27:26.522Z,1.00
2018-07-17T06:29:54.989Z,56.50
2018-07-17T06:32:23.500Z,80.80
2018-07-17T06:34:51.984Z,30.90
2018-07-17T06:37:20.532Z,99.90
2018-07-17T06:39:48.969Z,1.00
2018-07-17T06:42:17.711Z,1.00
2018-07-17T06:44:46.320Z,99.90
2018-07-17T06:47:14.786Z,99.90
2018-07-17T06:49:43.593Z,1.00
2018-07-17T06:52:12.537Z,99.90
2018-07-17T06:54:41.451Z,1.00
2018-07-17T06:57:10.033Z,1.00
2018-07-17T06:59:38.644Z,99.90
2018-07-17T07:02:07.096Z,64.90
2018-07-17T07:04:35.583Z,1.00
2018-07-17T07:07:04.125Z,99.90
2018-07-17T07:09:32.600Z,99.90
2018-07-17T07:12:01.092Z,99.90
2018-07-17T07:14:29.821Z,99.90
2018-07-17T07:16:58.416Z,99.90
2018-07-17T07:19:27.043Z,99.90
2018-07-17T07:21:55.525Z,99.90
2018-07-17T07:24:23.984Z,99.90
2018-07-17T07:26:52.463Z,99.90
2018-07-17T07:29:21.008Z,99.90
2018-07-17T07:31:49.498Z,99.90
2018-07-17T07:34:18.195Z,99.90
2018-07-17T07:36:46.673Z,99.90
2018-07-17T07:39:15.124Z,99.90
2018-07-17T07:41:43.611Z,99.90
2018-07-17T07:44:12.119Z,99.90
2018-07-17T07:46:40.719Z,99.90
2018-07-17T07:49:09.271Z,99.90
2018-07-17T07:51:37.738Z,99.90
2018-07-17T07:54:06.463Z,99.90
2018-07-17T07:56:35.102Z,99.90
2018-07-17T07:59:03.626Z,99.90
2018-07-17T08:01:32.134Z,99.90
2018-07-17T08:04:00.720Z,99.90
2018-07-17T08:06:29.150Z,99.90
2018-07-17T08:08:57.618Z,99.90
2018-07-17T08:11:26.117Z,99.90
2018-07-17T08:13:54.560Z,99.90
2018-07-17T08:16:23.020Z,99.90
2018-07-17T08:18:51.482Z,99.90
2018-07-17T08:21:20.006Z,99.90
2018-07-17T08:23:48.464Z,99.90
2018-07-17T08:26:16.953Z,99.90
2018-07-17T08:28:45.736Z,99.90
2018-07-17T08:31:14.214Z,99.90
2018-07-17T08:33:42.894Z,99.90
2018-07-17T08:36:11.478Z,99.90
2018-07-17T08:38:40.023Z,99.90
2018-07-17T08:41:08.540Z,99.90
2018-07-17T08:43:37.232Z,99.90
2018-07-17T08:46:05.726Z,99.90
2018-07-17T08:48:34.330Z,99.90
2018-07-17T08:51:02.820Z,99.90
2018-07-17T08:53:31.376Z,99.90
2018-07-17T08:55:59.878Z,99.90
2018-07-17T08:58:28.447Z,99.90
2018-07-17T09:00:56.906Z,99.90
2018-07-17T09:03:25.406Z,99.90
2018-07-17T09:05:53.896Z,99.90
2018-07-17T09:08:22.383Z,99.90
2018-07-17T09:10:50.938Z,99.90
2018-07-17T09:13:19.440Z,99.90
2018-07-17T09:15:47.910Z,99.90
2018-07-17T09:18:16.391Z,99.90
2018-07-17T09:20:44.881Z,99.90
2018-07-17T09:23:13.365Z,99.90
2018-07-17T09:25:41.845Z,99.90
2018-07-17T09:28:10.391Z,99.90
2018-07-17T09:30:44.027Z,99.90
2018-07-17T09:33:12.477Z,99.90
2018-07-17T09:35:40.959Z,99.90
2018-07-17T09:38:09.579Z,99.90
2018-07-17T09:40:38.377Z,99.90
2018-07-17T09:43:07.007Z,99.90
2018-07-17T09:45:35.441Z,99.90
2018-07-17T09:48:03.897Z,99.90
2018-07-17T09:50:32.375Z,99.90
2018-07-17T09:53:00.882Z,99.90
2018-07-17T09:55:29.330Z,99.90
2018-07-17T09:57:57.840Z,99.90
2018-07-17T10:00:31.711Z,99.90
2018-07-17T10:03:00.198Z,99.90
2018-07-17T10:05:28.678Z,99.90
2018-07-17T10:07:57.160Z,99.90
2018-07-17T10:10:25.623Z,99.90
2018-07-17T10:12:54.358Z,99.90
2018-07-17T10:15:22.830Z,99.90
2018-07-17T10:17:51.300Z,99.90
2018-07-17T10:20:19.863Z,99.90
2018-07-17T10:22:48.320Z,99.90
2018-07-17T10:25:16.822Z,99.90
2018-07-17T10:27:45.280Z,99.90
2018-07-17T10:30:13.787Z,99.90
2018-07-17T10:32:42.241Z,99.90
2018-07-17T10:35:10.781Z,99.90
2018-07-17T10:37:39.246Z,99.90
2018-07-17T10:40:08.225Z,99.90
2018-07-17T10:42:36.726Z,99.90
2018-07-17T10:45:05.271Z,99.90
2018-07-17T10:47:33.794Z,99.90
2018-07-17T10:50:02.374Z,99.90
2018-07-17T10:52:30.863Z,99.90
2018-07-17T10:54:59.362Z,99.90
2018-07-17T10:57:27.895Z,99.90
2018-07-17T10:59:56.384Z,99.90
2018-07-17T11:02:25.712Z,99.90
2018-07-17T11:04:54.169Z,99.90
2018-07-17T11:07:22.671Z,99.90
2018-07-17T11:09:51.147Z,99.90
2018-07-17T11:12:19.614Z,99.90
2018-07-17T11:14:48.112Z,99.90
2018-07-17T11:17:16.582Z,99.90
2018-07-17T11:19:45.241Z,99.90
2018-07-17T11:22:13.718Z,99.90
2018-07-17T11:24:42.206Z,99.90
2018-07-17T11:27:10.705Z,99.90
2018-07-17T11:29:39.207Z,99.90
2018-07-17T11:32:07.735Z,99.90
2018-07-17T11:34:36.188Z,99.90
2018-07-17T11:37:04.750Z,99.90
2018-07-17T11:39:33.232Z,99.90
2018-07-17T11:42:01.747Z,99.90
2018-07-17T11:44:30.480Z,99.90
2018-07-17T11:46:58.981Z,99.90
2018-07-17T11:49:27.464Z,99.90
2018-07-17T11:51:55.966Z,99.90
2018-07-17T11:54:24.502Z,99.90
2018-07-17T11:56:52.990Z,99.90
2018-07-17T11:59:21.495Z,99.90
2018-07-17T12:01:49.923Z,99.90
2018-07-17T12:04:18.448Z,99.90
2018-07-17T12:06:46.876Z,99.90
2018-07-17T12:09:15.351Z,99.90
2018-07-17T12:11:43.927Z,99.90
2018-07-17T12:14:12.473Z,99.90
2018-07-17T12:16:40.940Z,99.90
2018-07-17T12:19:09.450Z,99.90
2018-07-17T12:21:37.903Z,99.90
2018-07-17T12:24:06.488Z,99.90
2018-07-17T12:26:35.091Z,99.90
2018-07-17T12:29:03.721Z,99.90
2018-07-17T12:31:32.230Z,99.90
2018-07-17T12:34:00.724Z,99.90
2018-07-17T12:36:29.331Z,99.90
2018-07-17T12:38:57.948Z,99.90
2018-07-17T12:41:26.548Z,99.90
2018-07-17T12:43:54.998Z,99.90
2018-07-17T12:46:23.622Z,99.90
2018-07-17T12:48:52.196Z,99.90
2018-07-17T12:51:20.776Z,99.90
2018-07-17T12:53:49.408Z,99.90
2018-07-17T12:56:17.963Z,99.90
2018-07-17T12:58:46.484Z,99.90
2018-07-17T13:01:15.174Z,99.90
2018-07-17T13:03:43.624Z,99.90
2018-07-17T13:06:12.150Z,99.90
2018-07-17T13:08:40.646Z,99.90
2018-07-17T13:11:09.302Z,99.90
2018-07-17T13:13:37.797Z,99.90
2018-07-17T13:16:06.303Z,99.90
2018-07-17T13:18:34.991Z,99.90
2018-07-17T13:21:03.583Z,99.90
2018-07-17T13:23:32.196Z,99.90
2018-07-17T13:26:00.739Z,99.90
2018-07-17T13:28:29.299Z,99.90
2018-07-17T13:33:25.985Z,99.90
2018-07-17T13:35:54.690Z,99.90
2018-07-17T13:38:23.195Z,99.90
2018-07-17T13:40:51.955Z,99.90
2018-07-17T13:43:20.471Z,99.90
2018-07-17T13:45:49.102Z,99.90
2018-07-17T13:48:17.534Z,99.90
2018-07-17T13:50:46.616Z,99.90
2018-07-17T13:53:15.227Z,99.90
2018-07-17T13:55:44.069Z,99.90
2018-07-17T13:58:12.692Z,99.90
2018-07-17T14:00:41.195Z,99.90
2018-07-17T14:03:09.684Z,99.90
2018-07-17T14:05:38.292Z,99.90
2018-07-17T14:08:06.906Z,99.90
2018-07-17T14:10:35.544Z,99.90
2018-07-17T14:13:04.221Z,99.90
2018-07-17T14:15:32.740Z,99.90
2018-07-17T14:18:01.364Z,99.90
2018-07-17T14:20:29.946Z,99.90
2018-07-17T14:22:58.626Z,99.90
2018-07-17T14:25:27.152Z,99.90
2018-07-17T14:27:55.630Z,99.90
2018-07-17T14:30:24.099Z,99.90
2018-07-17T14:32:52.677Z,99.90
2018-07-17T14:35:21.194Z,99.90
2018-07-17T14:37:49.726Z,99.90
2018-07-17T14:40:18.299Z,99.90
2018-07-17T14:42:46.884Z,99.90
2018-07-17T14:45:15.502Z,99.90
2018-07-17T14:47:44.200Z,99.90
2018-07-17T14:50:12.985Z,99.90
2018-07-17T14:52:41.590Z,99.90
2018-07-17T14:55:11.288Z,99.90
2018-07-17T14:57:40.597Z,99.90
2018-07-17T15:00:10.580Z,99.90
2018-07-17T15:02:39.384Z,99.90
2018-07-17T15:05:08.916Z,99.90
2018-07-17T15:07:37.410Z,99.90
2018-07-17T15:10:06.694Z,99.90
2018-07-17T15:12:35.264Z,99.90
2018-07-17T15:15:03.863Z,99.90
2018-07-17T15:17:32.441Z,99.90
2018-07-17T15:20:00.933Z,99.90
2018-07-17T15:22:29.573Z,99.90
2018-07-17T15:24:57.999Z,99.90
2018-07-17T15:27:26.466Z,99.90
2018-07-17T15:29:54.981Z,99.90
2018-07-17T15:32:23.477Z,99.90
2018-07-17T15:34:52.031Z,99.90
2018-07-17T15:37:20.502Z,99.90
2018-07-17T15:39:48.962Z,99.90
2018-07-17T15:42:17.527Z,99.90
2018-07-17T15:44:46.268Z,99.90
2018-07-17T15:47:15.018Z,99.90
2018-07-17T15:49:43.488Z,99.90
2018-07-17T15:52:12.387Z,99.90
2018-07-17T15:54:41.375Z,99.90
2018-07-17T15:57:09.933Z,99.90
2018-07-17T15:59:38.878Z,99.90
2018-07-17T16:02:07.440Z,99.90
2018-07-17T16:04:35.998Z,99.90
2018-07-17T16:07:04.523Z,99.90
2018-07-17T16:09:33.461Z,99.90
2018-07-17T16:12:02.017Z,99.90
2018-07-17T16:14:30.788Z,99.90
2018-07-17T16:16:59.274Z,99.90
2018-07-17T16:19:27.813Z,99.90
2018-07-17T16:21:56.361Z,99.90
2018-07-17T16:24:24.850Z,99.90
2018-07-17T16:26:53.615Z,99.90
2018-07-17T16:29:22.174Z,99.90
2018-07-17T16:31:50.825Z,99.90
2018-07-17T16:34:19.366Z,99.90
2018-07-17T16:36:48.031Z,99.90
2018-07-17T16:39:16.667Z,99.90
2018-07-17T16:41:45.201Z,99.90
2018-07-17T16:44:14.136Z,99.90
2018-07-17T16:46:42.703Z,99.90
2018-07-17T16:49:11.208Z,99.90
2018-07-17T16:51:39.923Z,99.90
2018-07-17T16:56:36.705Z,99.90
2018-07-17T16:59:05.428Z,99.90
2018-07-17T17:01:34.007Z,99.90
2018-07-17T17:04:02.553Z,99.90
2018-07-17T17:06:31.138Z,99.90
2018-07-17T17:08:59.719Z,99.90
2018-07-17T17:11:28.271Z,99.90
2018-07-17T17:13:57.263Z,99.90
2018-07-17T17:16:25.768Z,99.90
2018-07-17T17:18:54.351Z,99.90
2018-07-17T17:21:22.868Z,99.90
2018-07-17T17:23:51.391Z,99.90
2018-07-17T17:26:19.843Z,99.90
2018-07-17T17:28:48.417Z,99.90
2018-07-17T17:31:17.184Z,99.90
2018-07-17T17:33:45.831Z,99.90
2018-07-17T17:36:14.408Z,99.90
2018-07-17T17:38:43.099Z,99.90
2018-07-17T17:41:11.615Z,99.90
2018-07-17T17:43:40.297Z,99.90
2018-07-17T17:46:08.844Z,99.90
2018-07-17T17:48:37.795Z,99.90
2018-07-17T17:51:06.678Z,99.90
2018-07-17T17:53:35.194Z,99.90
2018-07-17T17:56:04.020Z,99.90
2018-07-17T17:58:32.824Z,99.90
2018-07-17T18:01:01.419Z,99.90
2018-07-17T18:03:30.016Z,99.90
2018-07-17T18:05:58.539Z,99.90
2018-07-17T18:08:27.007Z,99.90
2018-07-17T18:10:55.503Z,99.90
2018-07-17T18:13:24.057Z,99.90
2018-07-17T18:15:52.677Z,99.90
2018-07-17T18:18:21.163Z,99.90
2018-07-17T18:20:49.707Z,99.90
2018-07-17T18:23:18.267Z,99.90
2018-07-17T18:25:46.776Z,99.90
2018-07-17T18:28:15.280Z,99.90
2018-07-17T18:30:43.988Z,99.90
2018-07-17T18:33:12.517Z,99.90
2018-07-17T18:35:41.274Z,99.90
2018-07-17T18:38:09.764Z,99.90
2018-07-17T18:40:39.948Z,99.90
2018-07-17T18:43:08.579Z,99.90
2018-07-17T18:45:37.274Z,99.90
2018-07-17T18:48:06.109Z,99.90
2018-07-17T18:50:34.774Z,99.90
2018-07-17T18:53:03.278Z,1.00
2018-07-17T18:55:32.115Z,1.00
2018-07-17T18:58:00.738Z,97.80
2018-07-17T19:00:29.305Z,99.90
2018-07-17T19:02:57.826Z,99.90
2018-07-17T19:05:26.611Z,99.90
2018-07-17T19:07:55.124Z,99.90
2018-07-17T19:10:23.729Z,99.90
2018-07-17T19:12:52.283Z,99.90
2018-07-17T19:15:20.815Z,99.90
2018-07-17T19:17:49.371Z,99.90
2018-07-17T19:20:18.247Z,99.90
2018-07-17T19:22:46.735Z,99.90
2018-07-17T19:25:15.275Z,99.90
2018-07-17T19:27:43.792Z,99.90
2018-07-17T19:30:12.641Z,66.50
2018-07-17T19:32:41.314Z,93.20
2018-07-17T19:35:09.905Z,1.00
2018-07-17T19:40:07.302Z,1.00
2018-07-17T19:42:35.949Z,1.00
2018-07-17T19:45:04.858Z,1.00
2018-07-17T19:47:33.365Z,1.00
2018-07-17T19:50:01.974Z,1.00
2018-07-17T19:52:30.698Z,32.80
2018-07-17T19:54:59.215Z,1.00
2018-07-17T19:57:27.810Z,52.80
2018-07-17T19:59:57.349Z,1.00
2018-07-17T20:02:25.899Z,1.00
2018-07-17T20:04:54.477Z,46.00
2018-07-17T20:07:23.028Z,99.90
2018-07-17T20:09:51.544Z,99.90
2018-07-17T20:12:20.210Z,99.90
2018-07-17T20:14:48.730Z,99.90
2018-07-17T20:17:17.457Z,99.90
2018-07-17T20:22:14.461Z,1.00
2018-07-17T20:24:43.183Z,1.00
2018-07-17T20:27:11.940Z,99.90
2018-07-17T20:29:40.721Z,56.90
2018-07-17T20:32:09.220Z,4.10
2018-07-17T20:34:37.815Z,99.90
2018-07-17T20:37:06.290Z,1.00
2018-07-17T20:39:34.888Z,1.00
2018-07-17T20:42:03.657Z,99.90
2018-07-17T20:44:32.441Z,1.00
2018-07-17T20:47:01.124Z,1.00
2018-07-17T20:49:29.693Z,99.90
2018-07-17T20:51:58.247Z,34.20
2018-07-17T20:54:26.895Z,1.00
2018-07-17T20:56:55.377Z,99.90
2018-07-17T20:59:24.058Z,90.90
2018-07-17T21:01:52.571Z,99.90
2018-07-17T21:04:21.192Z,99.90
2018-07-17T21:06:49.705Z,1.00
2018-07-17T21:09:18.208Z,99.90
2018-07-17T21:11:46.752Z,1.00
2018-07-17T21:14:15.375Z,99.90
2018-07-17T21:16:43.905Z,99.90
2018-07-17T21:21:40.690Z,1.00
2018-07-17T21:24:09.218Z,1.00
2018-07-17T21:26:37.836Z,1.00
2018-07-17T21:29:06.328Z,1.00
2018-07-17T21:31:34.856Z,13.00
2018-07-17T21:34:03.347Z,1.00
2018-07-17T21:36:31.946Z,1.00
2018-07-17T21:39:00.572Z,1.00
2018-07-17T21:41:29.144Z,1.00
2018-07-17T21:43:57.611Z,5.30
2018-07-17T21:46:26.120Z,1.00
2018-07-17T21:48:54.631Z,1.00
2018-07-17T21:51:23.104Z,1.00
2018-07-17T21:53:51.605Z,14.10
2018-07-17T21:56:20.218Z,99.90
2018-07-17T21:58:48.678Z,1.00
2018-07-17T22:01:17.393Z,1.00
2018-07-17T22:03:45.987Z,99.90
2018-07-17T22:06:14.524Z,99.90
2018-07-17T22:08:43.039Z,1.00
2018-07-17T22:11:11.635Z,1.00
2018-07-17T22:13:40.179Z,99.90
2018-07-17T22:16:08.682Z,99.90
2018-07-17T22:18:37.256Z,99.90
2018-07-17T22:21:06.365Z,1.00
2018-07-17T22:23:34.847Z,1.00
2018-07-17T22:26:03.326Z,1.00
2018-07-17T22:28:31.910Z,99.90
2018-07-17T22:31:00.585Z,1.00
2018-07-17T22:33:29.083Z,99.90
2018-07-17T22:35:57.616Z,99.90
2018-07-17T22:38:26.096Z,1.00
2018-07-17T22:40:54.546Z,1.00
2018-07-17T22:43:23.055Z,99.90
2018-07-17T22:45:51.548Z,99.90
2018-07-17T22:48:20.063Z,99.90
2018-07-17T22:50:48.773Z,99.90
2018-07-17T22:53:17.241Z,1.00
2018-07-17T22:55:45.688Z,1.00
2018-07-17T22:58:14.129Z,91.40
2018-07-17T23:00:42.621Z,99.90
2018-07-17T23:03:11.143Z,1.00
2018-07-17T23:05:39.629Z,1.00
2018-07-17T23:08:08.095Z,1.00
2018-07-17T23:10:36.653Z,77.20
2018-07-17T23:13:05.410Z,99.90
2018-07-17T23:15:33.904Z,99.90
2018-07-17T23:18:02.355Z,99.90
2018-07-17T23:20:30.914Z,99.90
2018-07-17T23:23:00.372Z,99.90
2018-07-17T23:25:30.189Z,99.90
2018-07-17T23:27:59.282Z,99.90
2018-07-17T23:30:27.760Z,99.90
2018-07-17T23:32:56.222Z,99.90
2018-07-17T23:35:25.451Z,99.90
2018-07-17T23:40:23.112Z,99.90
2018-07-17T23:42:51.610Z,99.90
2018-07-17T23:45:20.087Z,99.90
2018-07-17T23:47:49.396Z,99.90
2018-07-17T23:50:17.978Z,99.90
2018-07-17T23:52:46.506Z,1.00
2018-07-17T23:55:14.995Z,1.00
2018-07-17T23:57:43.487Z,1.00
